Terminal Aerodrome Forecast
Issued by NWS

Home | Current Version | Previous Version | Text Only | Print | Product List | Glossary On
Versions: 1 2 3 4 5 6 7 8 9 10 11 12 13 14 15 16 17 18 19 20 21 22
000
FTUS44 KTSA 202335
TAFFYV
TAF
KFYV 202335Z 2100/2124 29003KT P6SM BKN100
     FM210600 VRB03KT 4SM BR OVC025
      TEMPO 2109/2113 2SM BR OVC010
     FM211500 34005KT 4SM BR OVC015
     FM211800 34007KT P6SM SCT250=

USA.gov is the U.S. government's official web portal to all federal, state and local government web resources and services.